X  Schlie├čen METAR Luftfahrt Wetterdaten     KVAD Moody Air Force Base
Temperatur
75°F Temperatur
68°F Taupunkt
78% Feuchtigkeit



Wind
9 MPS
14 KM/S
4 M/S
8 KTS



50°
NO
Aktuelle Wetterlage

Meistens vereinzelte Wolken Meistens vereinzelte Wolken
Luftdruck 1014.52 (hPa) - 29.96 (inHg)
Sichtweite 10 (Meile) - 16.1 (Km)
Flughafen
Flughafen Code KVAD

Position : Moody Air Force Base
Entfernung: 5 (mi)

Metar:
KVAD 311855Z AUTO 05008KT 10SM SCT036 SCT100 BKN120 24/20 A2996 RMK AO2 LTG DSNT SE-S AND NW SLP146 T02410196 $

Zeit: 31-05-2023 18:55 EDT